createdAt,value
2022-09-23T00:02:17.949Z,43.09
2022-09-23T00:04:44.426Z,43.14
2022-09-23T00:07:10.887Z,43.12
2022-09-23T00:09:37.369Z,43.22
2022-09-23T00:12:08.676Z,43.05
2022-09-23T00:14:37.353Z,43.03
2022-09-23T00:17:03.901Z,42.99
2022-09-23T00:19:30.414Z,42.89
2022-09-23T00:21:56.863Z,43.12
2022-09-23T00:24:24.026Z,42.93
2022-09-23T00:26:50.968Z,43.13
2022-09-23T00:29:17.472Z,42.91
2022-09-23T00:31:43.915Z,43.05
2022-09-23T00:34:10.699Z,42.98
2022-09-23T00:36:37.154Z,42.98
2022-09-23T00:39:06.587Z,42.99
2022-09-23T00:41:33.971Z,43.03
2022-09-23T00:44:00.826Z,43.00
2022-09-23T00:46:37.738Z,42.98
2022-09-23T00:49:10.937Z,43.12
2022-09-23T00:51:39.045Z,43.02
2022-09-23T00:54:06.378Z,43.02
2022-09-23T00:56:33.284Z,42.96
2022-09-23T00:59:00.136Z,43.00
2022-09-23T01:01:26.804Z,43.08
2022-09-23T01:03:54.354Z,42.98
2022-09-23T01:06:20.839Z,43.07
2022-09-23T01:08:47.297Z,43.04
2022-09-23T01:11:48.618Z,43.04
2022-09-23T01:14:40.431Z,43.02
2022-09-23T01:17:27.589Z,43.13
2022-09-23T01:20:15.933Z,43.08
2022-09-23T01:22:46.865Z,43.10
2022-09-23T01:25:19.205Z,43.05
2022-09-23T01:28:10.689Z,43.02
2022-09-23T01:30:52.351Z,42.96
2022-09-23T01:33:35.268Z,42.99
2022-09-23T01:36:23.691Z,42.96
2022-09-23T01:38:59.119Z,43.19
2022-09-23T01:41:41.733Z,43.00
2022-09-23T01:44:21.983Z,42.92
2022-09-23T01:46:55.699Z,42.94
2022-09-23T01:49:34.265Z,43.01
2022-09-23T01:52:15.603Z,42.94
2022-09-23T01:54:46.560Z,43.02
2022-09-23T01:57:41.197Z,42.91
2022-09-23T02:00:13.851Z,43.03
2022-09-23T02:02:49.749Z,43.01
2022-09-23T02:05:24.427Z,43.06
2022-09-23T02:07:57.989Z,42.88
2022-09-23T02:10:27.901Z,42.90
2022-09-23T02:12:57.287Z,42.91
2022-09-23T02:15:25.787Z,42.92
2022-09-23T02:17:55.615Z,42.90
2022-09-23T02:20:28.064Z,42.99
2022-09-23T02:23:01.574Z,42.92
2022-09-23T02:25:33.898Z,42.78
2022-09-23T02:28:11.899Z,42.91
2022-09-23T02:30:46.335Z,42.76
2022-09-23T02:33:29.765Z,42.88
2022-09-23T02:36:03.136Z,43.01
2022-09-23T02:38:39.916Z,43.10
2022-09-23T02:41:22.595Z,43.03
2022-09-23T02:43:56.681Z,43.04
2022-09-23T02:46:23.227Z,42.99
2022-09-23T02:48:52.980Z,42.94
2022-09-23T02:51:19.556Z,43.16
2022-09-23T02:53:45.998Z,43.08
2022-09-23T02:56:16.639Z,43.09
2022-09-23T02:58:43.308Z,43.01
2022-09-23T03:01:32.709Z,42.94
2022-09-23T03:04:26.755Z,43.05
2022-09-23T03:07:15.501Z,43.15
2022-09-23T03:09:55.837Z,42.93
2022-09-23T03:12:48.291Z,42.96
2022-09-23T03:15:40.773Z,43.12
2022-09-23T03:18:15.602Z,42.96
2022-09-23T03:20:46.387Z,42.99
2022-09-23T03:23:15.022Z,43.00
2022-09-23T03:25:43.095Z,43.02
2022-09-23T03:28:09.545Z,42.91
2022-09-23T03:30:36.015Z,42.95
2022-09-23T03:33:04.211Z,43.18
2022-09-23T03:35:31.990Z,43.03
2022-09-23T03:38:09.339Z,43.16
2022-09-23T03:40:43.329Z,42.86
2022-09-23T03:43:09.869Z,42.70
2022-09-23T03:45:36.530Z,42.27
2022-09-23T03:48:03.070Z,42.08
2022-09-23T03:50:29.534Z,42.29
2022-09-23T03:52:55.973Z,42.09
2022-09-23T03:55:22.429Z,41.93
2022-09-23T03:57:48.875Z,41.72
2022-09-23T04:00:15.762Z,41.88
2022-09-23T04:02:42.222Z,42.00
2022-09-23T04:05:09.053Z,41.89
2022-09-23T04:07:35.507Z,42.08
2022-09-23T04:10:02.057Z,42.21
2022-09-23T04:12:28.494Z,42.10
2022-09-23T04:14:54.940Z,42.31
2022-09-23T04:17:21.629Z,42.16
2022-09-23T04:19:48.069Z,42.32
2022-09-23T04:22:14.691Z,42.28
2022-09-23T04:24:41.133Z,42.38
2022-09-23T04:27:07.604Z,42.27
2022-09-23T04:29:34.054Z,42.45
2022-09-23T04:32:00.570Z,42.35
2022-09-23T04:34:27.119Z,42.60
2022-09-23T04:36:53.574Z,42.40
2022-09-23T04:39:20.073Z,42.08
2022-09-23T04:41:46.602Z,41.77
2022-09-23T04:44:13.303Z,41.68
2022-09-23T04:46:40.738Z,41.20
2022-09-23T04:49:07.668Z,41.22
2022-09-23T04:51:34.320Z,41.13
2022-09-23T04:54:00.781Z,41.23
2022-09-23T04:56:28.775Z,41.26
2022-09-23T04:58:56.485Z,41.40
2022-09-23T05:01:27.498Z,41.38
2022-09-23T05:03:56.139Z,41.37
2022-09-23T05:06:22.608Z,41.76
2022-09-23T05:08:50.687Z,41.62
2022-09-23T05:11:17.935Z,41.93
2022-09-23T05:13:45.564Z,41.88
2022-09-23T05:16:12.525Z,42.22
2022-09-23T05:18:41.088Z,42.08
2022-09-23T05:21:07.945Z,41.84
2022-09-23T05:23:34.469Z,41.73
2022-09-23T05:26:02.314Z,41.78
2022-09-23T05:28:32.646Z,41.63
2022-09-23T05:31:19.758Z,41.60
2022-09-23T05:33:48.736Z,41.65
2022-09-23T05:36:17.064Z,41.48
2022-09-23T05:38:43.618Z,41.42
2022-09-23T05:41:11.888Z,41.83
2022-09-23T05:43:38.661Z,41.97
2022-09-23T05:46:15.500Z,41.65
2022-09-23T05:48:42.259Z,41.82
2022-09-23T05:51:12.711Z,41.88
2022-09-23T05:53:39.950Z,41.76
2022-09-23T05:56:06.626Z,41.65
2022-09-23T05:58:33.210Z,41.21
2022-09-23T06:00:59.723Z,41.33
2022-09-23T06:03:26.257Z,40.89
2022-09-23T06:05:53.758Z,40.95
2022-09-23T06:08:20.212Z,40.94
2022-09-23T06:10:53.506Z,41.29
2022-09-23T06:13:20.954Z,41.40
2022-09-23T06:15:47.438Z,41.64
2022-09-23T06:18:13.979Z,41.57
2022-09-23T06:20:40.469Z,41.97
2022-09-23T06:23:10.477Z,41.97
2022-09-23T06:25:38.367Z,41.68
2022-09-23T06:28:05.031Z,41.37
2022-09-23T06:30:31.474Z,41.34
2022-09-23T06:32:58.120Z,40.98
2022-09-23T06:35:27.591Z,40.96
2022-09-23T06:37:54.702Z,40.51
2022-09-23T06:40:22.486Z,40.60
2022-09-23T06:42:52.390Z,40.68
2022-09-23T06:45:18.969Z,40.35
2022-09-23T06:47:45.420Z,40.37
2022-09-23T06:50:14.933Z,40.46
2022-09-23T06:52:42.046Z,40.32
2022-09-23T06:55:11.307Z,40.31
2022-09-23T06:57:37.773Z,40.19
2022-09-23T07:00:04.591Z,39.79
2022-09-23T07:02:31.172Z,40.09
2022-09-23T07:04:57.804Z,39.64
2022-09-23T07:07:24.267Z,39.68
2022-09-23T07:09:51.371Z,39.42
2022-09-23T07:12:17.874Z,38.79
2022-09-23T07:14:44.735Z,38.99
2022-09-23T07:17:12.461Z,38.72
2022-09-23T07:19:38.917Z,38.71
2022-09-23T07:22:05.381Z,38.37
2022-09-23T07:24:31.826Z,37.93
2022-09-23T07:26:58.295Z,37.47
2022-09-23T07:29:24.781Z,37.34
2022-09-23T07:31:51.628Z,37.48
2022-09-23T07:34:18.679Z,37.23
2022-09-23T07:36:45.136Z,37.85
2022-09-23T07:39:11.889Z,38.08
2022-09-23T07:41:38.512Z,37.98
2022-09-23T07:44:05.986Z,38.26
2022-09-23T07:46:34.510Z,38.03
2022-09-23T07:49:02.004Z,38.42
2022-09-23T07:51:35.459Z,38.09
2022-09-23T07:54:02.705Z,37.75
2022-09-23T07:56:29.773Z,37.78
2022-09-23T07:59:03.983Z,37.87
2022-09-23T08:01:39.928Z,37.69
2022-09-23T08:04:17.752Z,37.46
2022-09-23T08:06:45.650Z,36.94
2022-09-23T08:09:12.270Z,37.62
2022-09-23T08:11:42.356Z,37.60
2022-09-23T08:14:13.461Z,37.70
2022-09-23T08:16:43.929Z,37.49
2022-09-23T08:19:10.725Z,37.79
2022-09-23T08:21:39.419Z,37.70
2022-09-23T08:24:07.145Z,37.64
2022-09-23T08:26:34.389Z,37.35
2022-09-23T08:29:01.122Z,37.13
2022-09-23T08:31:27.631Z,37.29
2022-09-23T08:33:57.707Z,37.16
2022-09-23T08:36:24.507Z,36.92
2022-09-23T08:38:51.071Z,36.86
2022-09-23T08:41:44.843Z,37.07
2022-09-23T08:44:19.275Z,37.36
2022-09-23T08:46:50.963Z,36.74
2022-09-23T08:49:41.189Z,36.77
2022-09-23T08:52:14.449Z,36.86
2022-09-23T08:54:41.417Z,37.01
2022-09-23T08:57:08.413Z,36.57
2022-09-23T08:59:42.376Z,37.13
2022-09-23T09:02:19.322Z,36.43
2022-09-23T09:04:47.646Z,36.32
2022-09-23T09:07:36.384Z,36.82
2022-09-23T09:10:05.274Z,36.70
2022-09-23T09:12:38.118Z,36.68
2022-09-23T09:15:21.168Z,36.60
2022-09-23T09:17:54.981Z,36.56
2022-09-23T09:20:22.038Z,36.44
2022-09-23T09:22:59.813Z,36.56
2022-09-23T09:25:41.926Z,36.42
2022-09-23T09:28:24.555Z,36.18
2022-09-23T09:30:54.300Z,36.43
2022-09-23T09:33:21.937Z,36.32
2022-09-23T09:36:02.955Z,36.41
2022-09-23T09:38:29.456Z,36.31
2022-09-23T09:41:00.082Z,36.37
2022-09-23T09:43:26.531Z,36.80
2022-09-23T09:46:21.100Z,36.31
2022-09-23T09:48:56.985Z,36.41
2022-09-23T09:51:24.286Z,36.84
2022-09-23T09:53:52.516Z,36.80
2022-09-23T09:56:20.957Z,36.61
2022-09-23T09:58:50.738Z,36.62
2022-09-23T10:01:24.809Z,36.79
2022-09-23T10:03:55.520Z,36.91
2022-09-23T10:06:29.211Z,37.14
2022-09-23T10:09:04.687Z,37.12
2022-09-23T10:11:31.800Z,37.29
2022-09-23T10:14:20.255Z,37.10
2022-09-23T10:16:48.818Z,37.10
2022-09-23T10:19:27.487Z,37.15
2022-09-23T10:21:56.831Z,37.29
2022-09-23T10:24:24.948Z,37.11
2022-09-23T10:26:55.013Z,37.28
2022-09-23T10:29:30.268Z,37.42
2022-09-23T10:32:20.467Z,37.44
2022-09-23T10:34:55.620Z,37.37
2022-09-23T10:37:36.308Z,37.64
2022-09-23T10:40:34.644Z,37.83
2022-09-23T10:43:45.284Z,37.64
2022-09-23T10:46:38.299Z,37.75
2022-09-23T10:49:31.891Z,37.80
2022-09-23T10:52:07.324Z,37.71
2022-09-23T10:54:33.618Z,37.77
2022-09-23T10:57:42.742Z,37.89
2022-09-23T11:00:23.292Z,38.10
2022-09-23T11:02:55.431Z,38.12
2022-09-23T11:05:35.120Z,37.90
2022-09-23T11:08:19.121Z,38.15
2022-09-23T11:10:55.858Z,38.00
2022-09-23T11:13:54.632Z,37.99
2022-09-23T11:16:43.289Z,38.12
2022-09-23T11:19:34.643Z,38.26
2022-09-23T11:22:15.947Z,38.07
2022-09-23T11:25:00.546Z,38.01
2022-09-23T11:27:52.256Z,38.30
2022-09-23T11:30:19.980Z,38.77
2022-09-23T11:33:14.107Z,38.28
2022-09-23T11:35:50.634Z,38.41
2022-09-23T11:38:25.850Z,38.11
2022-09-23T11:40:56.435Z,38.47
2022-09-23T11:43:24.532Z,38.12
2022-09-23T11:46:02.509Z,37.93
2022-09-23T11:48:33.622Z,37.79
2022-09-23T11:51:10.075Z,37.89
2022-09-23T11:53:40.886Z,38.03
2022-09-23T11:56:32.235Z,38.21
2022-09-23T11:59:16.032Z,38.15
2022-09-23T12:01:48.332Z,38.47
2022-09-23T12:04:31.237Z,38.23
2022-09-23T12:07:14.822Z,38.28
2022-09-23T12:10:05.634Z,38.71
2022-09-23T12:12:50.749Z,39.39
2022-09-23T12:15:42.815Z,39.22
2022-09-23T12:18:10.566Z,39.25
2022-09-23T12:20:48.673Z,39.50
2022-09-23T12:23:36.946Z,38.90
2022-09-23T12:26:08.218Z,39.38
2022-09-23T12:28:39.092Z,39.57
2022-09-23T12:31:08.854Z,39.26
2022-09-23T12:33:36.100Z,39.41
2022-09-23T12:36:06.085Z,39.20
2022-09-23T12:38:36.581Z,39.24
2022-09-23T12:41:08.098Z,39.72
2022-09-23T12:43:35.516Z,39.23
2022-09-23T12:46:25.819Z,39.32
2022-09-23T12:48:57.278Z,39.34
2022-09-23T12:51:28.230Z,39.44
2022-09-23T12:53:58.246Z,39.22
2022-09-23T12:56:37.815Z,39.36
2022-09-23T12:59:21.659Z,39.37
2022-09-23T13:01:48.199Z,39.54
2022-09-23T13:04:46.959Z,39.75
2022-09-23T13:07:16.456Z,39.29
2022-09-23T13:09:45.522Z,39.46
2022-09-23T13:12:18.440Z,39.35
2022-09-23T13:14:46.021Z,39.59
2022-09-23T13:17:29.289Z,39.46
2022-09-23T13:20:07.010Z,39.26
2022-09-23T13:22:41.509Z,39.57
2022-09-23T13:25:17.428Z,39.46
2022-09-23T13:27:43.899Z,39.27
2022-09-23T13:30:26.493Z,39.57
2022-09-23T13:33:14.274Z,39.20
2022-09-23T13:35:43.374Z,39.24
2022-09-23T13:38:26.287Z,39.00
2022-09-23T13:41:03.884Z,39.64
2022-09-23T13:43:41.546Z,39.49
2022-09-23T13:46:17.582Z,39.22
2022-09-23T13:48:45.205Z,39.17
2022-09-23T13:51:14.850Z,39.42
2022-09-23T13:53:41.303Z,39.60
2022-09-23T13:56:14.844Z,39.42
2022-09-23T13:58:41.421Z,39.61
2022-09-23T14:01:16.160Z,39.79
2022-09-23T14:03:44.280Z,39.69
2022-09-23T14:06:14.212Z,39.50
2022-09-23T14:08:48.127Z,39.49
2022-09-23T14:11:18.594Z,39.42
2022-09-23T14:13:46.167Z,39.33
2022-09-23T14:16:14.939Z,38.90
2022-09-23T14:18:44.076Z,39.17
2022-09-23T14:21:29.159Z,39.16
2022-09-23T14:23:55.642Z,39.56
2022-09-23T14:26:22.872Z,39.24
2022-09-23T14:28:49.319Z,39.42
2022-09-23T14:31:15.816Z,39.31
2022-09-23T14:33:42.562Z,39.30
2022-09-23T14:36:30.927Z,39.50
2022-09-23T14:39:11.400Z,39.38
2022-09-23T14:41:42.401Z,39.61
2022-09-23T14:44:21.437Z,40.02
2022-09-23T14:47:00.164Z,39.99
2022-09-23T14:49:26.620Z,40.24
2022-09-23T14:51:57.690Z,40.10
2022-09-23T14:54:39.180Z,40.10
2022-09-23T14:57:24.042Z,40.49
2022-09-23T15:00:01.049Z,40.26
2022-09-23T15:02:35.288Z,40.14
2022-09-23T15:05:08.883Z,40.33
2022-09-23T15:07:36.636Z,40.18
2022-09-23T15:10:04.812Z,40.40
2022-09-23T15:12:31.303Z,40.46
2022-09-23T15:14:58.469Z,40.52
2022-09-23T15:17:25.077Z,40.64
2022-09-23T15:19:57.209Z,40.64
2022-09-23T15:22:26.802Z,40.76
2022-09-23T15:24:54.057Z,41.18
2022-09-23T15:27:29.097Z,40.74
2022-09-23T15:29:57.714Z,41.01
2022-09-23T15:32:24.777Z,40.86
2022-09-23T15:34:51.313Z,41.22
2022-09-23T15:37:17.780Z,41.28
2022-09-23T15:39:44.448Z,41.56
2022-09-23T15:42:11.841Z,41.57
2022-09-23T15:44:38.347Z,41.46
2022-09-23T15:47:05.085Z,41.59
2022-09-23T15:49:36.186Z,41.73
2022-09-23T15:52:03.749Z,41.55
2022-09-23T15:54:30.698Z,41.59
2022-09-23T15:56:57.246Z,41.58
2022-09-23T15:59:24.115Z,41.65
2022-09-23T16:01:51.225Z,41.59
2022-09-23T16:04:17.913Z,41.84
2022-09-23T16:06:48.271Z,41.77
2022-09-23T16:09:15.351Z,41.83
2022-09-23T16:11:47.004Z,41.91
2022-09-23T16:14:15.007Z,41.81
2022-09-23T16:16:43.798Z,41.71
2022-09-23T16:19:14.067Z,41.84
2022-09-23T16:21:40.935Z,41.74
2022-09-23T16:24:18.091Z,41.74
2022-09-23T16:26:45.204Z,41.76
2022-09-23T16:29:11.694Z,41.72
2022-09-23T16:31:38.632Z,41.89
2022-09-23T16:34:05.299Z,41.75
2022-09-23T16:36:37.855Z,42.27
2022-09-23T16:39:05.891Z,42.40
2022-09-23T16:41:32.535Z,42.19
2022-09-23T16:44:00.769Z,42.25
2022-09-23T16:46:27.754Z,42.08
2022-09-23T16:48:55.557Z,42.09
2022-09-23T16:51:23.764Z,42.18
2022-09-23T16:53:50.974Z,42.27
2022-09-23T16:56:18.412Z,42.21
2022-09-23T16:58:44.875Z,42.08
2022-09-23T17:01:34.990Z,42.16
2022-09-23T17:04:01.575Z,42.08
2022-09-23T17:06:28.992Z,41.92
2022-09-23T17:08:55.449Z,41.99
2022-09-23T17:11:21.952Z,41.80
2022-09-23T17:13:48.766Z,41.83
2022-09-23T17:16:26.577Z,41.84
2022-09-23T17:18:55.404Z,41.69
2022-09-23T17:21:26.372Z,41.60
2022-09-23T17:23:53.726Z,41.89
2022-09-23T17:26:23.231Z,41.65
2022-09-23T17:28:54.263Z,41.84
2022-09-23T17:31:22.136Z,41.46
2022-09-23T17:33:48.674Z,41.80
2022-09-23T17:36:15.378Z,41.78
2022-09-23T17:38:45.221Z,41.68
2022-09-23T17:41:12.165Z,41.78
2022-09-23T17:43:38.827Z,41.55
2022-09-23T17:46:07.370Z,42.04
2022-09-23T17:48:35.043Z,41.86
2022-09-23T17:51:06.564Z,41.90
2022-09-23T17:53:35.008Z,42.03
2022-09-23T17:56:06.334Z,42.14
2022-09-23T17:58:34.649Z,42.31
2022-09-23T18:01:01.507Z,42.33
2022-09-23T18:03:28.757Z,42.60
2022-09-23T18:05:55.198Z,42.41
2022-09-23T18:08:21.650Z,42.51
2022-09-23T18:10:48.110Z,42.63
2022-09-23T18:13:14.566Z,42.78
2022-09-23T18:15:41.406Z,42.87
2022-09-23T18:18:08.291Z,42.81
2022-09-23T18:20:34.738Z,43.19
2022-09-23T18:23:01.202Z,43.04
2022-09-23T18:25:39.268Z,43.11
2022-09-23T18:28:06.276Z,43.33
2022-09-23T18:30:33.469Z,43.36
2022-09-23T18:33:00.008Z,43.51
2022-09-23T18:35:26.515Z,43.25
2022-09-23T18:37:53.213Z,43.08
2022-09-23T18:40:19.799Z,42.93
2022-09-23T18:42:47.114Z,42.93
2022-09-23T18:45:13.571Z,43.08
2022-09-23T18:47:58.562Z,42.96
2022-09-23T18:50:40.241Z,42.93
2022-09-23T18:53:07.275Z,42.95
2022-09-23T18:55:35.201Z,42.97
2022-09-23T18:58:02.004Z,43.05
2022-09-23T19:00:28.552Z,43.07
2022-09-23T19:02:55.045Z,43.04
2022-09-23T19:05:21.482Z,43.21
2022-09-23T19:07:47.946Z,43.29
2022-09-23T19:10:14.455Z,43.17
2022-09-23T19:12:40.960Z,43.53
2022-09-23T19:15:08.092Z,43.54
2022-09-23T19:17:34.559Z,43.36
2022-09-23T19:20:01.166Z,43.54
2022-09-23T19:22:27.660Z,43.85
2022-09-23T19:24:54.096Z,43.61
2022-09-23T19:27:20.557Z,43.77
2022-09-23T19:29:47.587Z,43.97
2022-09-23T19:32:15.074Z,44.06
2022-09-23T19:34:41.581Z,43.96
2022-09-23T19:37:08.088Z,43.71
2022-09-23T19:39:35.067Z,43.85
2022-09-23T19:42:01.812Z,43.80
2022-09-23T19:44:28.276Z,44.05
2022-09-23T19:46:56.729Z,44.08
2022-09-23T19:49:24.501Z,44.20
2022-09-23T19:51:51.308Z,44.29
2022-09-23T19:54:20.939Z,44.41
2022-09-23T19:56:48.670Z,43.81
2022-09-23T19:59:18.467Z,43.71
2022-09-23T20:01:45.747Z,43.69
2022-09-23T20:04:12.374Z,43.72
2022-09-23T20:06:39.362Z,43.87
2022-09-23T20:09:05.955Z,43.61
2022-09-23T20:11:33.320Z,43.35
2022-09-23T20:14:02.085Z,43.40
2022-09-23T20:16:31.732Z,43.37
2022-09-23T20:18:59.646Z,43.38
2022-09-23T20:21:26.206Z,43.74
2022-09-23T20:23:52.756Z,43.52
2022-09-23T20:26:37.863Z,43.40
2022-09-23T20:29:04.533Z,43.62
2022-09-23T20:31:32.057Z,43.38
2022-09-23T20:33:58.867Z,43.40
2022-09-23T20:36:26.075Z,43.46
2022-09-23T20:38:56.321Z,43.45
2022-09-23T20:41:22.875Z,43.15
2022-09-23T20:43:53.973Z,43.43
2022-09-23T20:46:22.906Z,43.22
2022-09-23T20:48:49.458Z,43.60
2022-09-23T20:51:15.942Z,43.45
2022-09-23T20:53:42.999Z,43.51
2022-09-23T20:56:13.307Z,43.65
2022-09-23T20:58:40.367Z,43.60
2022-09-23T21:01:11.215Z,43.53
2022-09-23T21:03:39.533Z,43.58
2022-09-23T21:06:06.778Z,43.99
2022-09-23T21:08:33.715Z,44.17
2022-09-23T21:11:04.284Z,44.07
2022-09-23T21:13:31.271Z,43.76
2022-09-23T21:16:04.490Z,43.97
2022-09-23T21:18:31.201Z,43.95
2022-09-23T21:20:58.162Z,43.87
2022-09-23T21:23:28.479Z,43.90
2022-09-23T21:26:01.066Z,44.07
2022-09-23T21:28:32.054Z,43.92
2022-09-23T21:31:02.341Z,44.24
2022-09-23T21:33:28.996Z,44.12
2022-09-23T21:35:55.972Z,44.10
2022-09-23T21:38:23.261Z,44.22
2022-09-23T21:40:56.746Z,44.13
2022-09-23T21:43:27.534Z,44.39
2022-09-23T21:45:59.404Z,44.30
2022-09-23T21:48:27.747Z,44.16
2022-09-23T21:50:59.041Z,44.29
2022-09-23T21:53:25.962Z,44.40
2022-09-23T21:55:52.434Z,44.12
2022-09-23T21:58:18.861Z,44.23
2022-09-23T22:00:45.892Z,44.38
2022-09-23T22:03:12.488Z,44.27
2022-09-23T22:05:41.583Z,44.39
2022-09-23T22:08:09.057Z,44.39
2022-09-23T22:10:36.659Z,44.11
2022-09-23T22:13:03.696Z,44.36
2022-09-23T22:15:34.310Z,44.21
2022-09-23T22:18:00.778Z,44.15
2022-09-23T22:20:28.043Z,44.14
2022-09-23T22:22:55.855Z,44.44
2022-09-23T22:25:22.294Z,44.25
2022-09-23T22:28:07.190Z,44.28
2022-09-23T22:30:52.322Z,44.42
2022-09-23T22:33:18.807Z,44.19
2022-09-23T22:35:45.266Z,44.30
2022-09-23T22:38:11.769Z,44.20
2022-09-23T22:40:39.343Z,44.27
2022-09-23T22:43:05.885Z,44.17
2022-09-23T22:45:32.473Z,44.26
2022-09-23T22:47:58.929Z,44.25
2022-09-23T22:50:25.432Z,44.44
2022-09-23T22:52:52.011Z,44.22
2022-09-23T22:55:18.533Z,44.25
2022-09-23T22:57:44.988Z,44.33
2022-09-23T23:00:12.347Z,44.27
2022-09-23T23:02:39.895Z,44.20
2022-09-23T23:05:07.217Z,44.19
2022-09-23T23:07:35.968Z,44.27
2022-09-23T23:10:03.179Z,44.34
2022-09-23T23:12:29.691Z,44.17
2022-09-23T23:14:56.507Z,44.28
2022-09-23T23:17:22.976Z,44.02
2022-09-23T23:19:50.457Z,44.28
2022-09-23T23:22:16.959Z,44.33
2022-09-23T23:24:43.405Z,44.09
2022-09-23T23:27:09.858Z,44.16
2022-09-23T23:29:36.306Z,44.05
2022-09-23T23:32:02.774Z,44.14
2022-09-23T23:34:29.237Z,44.16
2022-09-23T23:36:55.770Z,44.17
2022-09-23T23:39:25.789Z,43.98
2022-09-23T23:41:56.136Z,44.04
2022-09-23T23:44:23.887Z,44.18
2022-09-23T23:46:50.522Z,44.28
2022-09-23T23:49:17.116Z,44.25
2022-09-23T23:51:43.567Z,44.38
2022-09-23T23:54:11.457Z,44.43
2022-09-23T23:56:37.931Z,44.47
2022-09-23T23:59:04.395Z,44.20
